< Typhoon 201002 2010 Season Typhoon 201004 >
Typhoon 201003 (CHANTHU)
General InformationTrack Information on Google MapsDetailed Wind InformationAccess Analytics MapList of All Images || NewsDisaster Info.WeblogTrackbackTyphoon FrontTwiphoonTyphoon Now!Typhoon ImaginationResourceGoogle EarthGE AnimationAtom FeedGeoJSON
Detalied Best Track (Time Zone = UTC)
Year Month Day Hour Lat. Long. Pressure (hPa) Wind (kt) Class Image Chart
2010 7 17 06 15.8 123.1 1008 0 2 Image Chart
2010 7 17 12 15.5 122.8 1008 0 2 Image Chart
2010 7 17 18 15.3 122.4 1008 0 2 Image Chart
2010 7 18 00 15.1 122.1 1008 0 2 Image Chart
2010 7 18 06 15.2 121.3 1006 0 2 Image Chart
2010 7 18 12 14.9 119.9 1006 0 2 Image Chart
2010 7 18 18 14.7 118.9 1004 0 2 Image Chart
2010 7 19 00 14.6 117.8 1004 0 2 Image Chart
2010 7 19 06 15.1 117.0 1002 0 2 Image Chart
2010 7 19 12 15.9 116.6 1000 35 3 Image Chart
2010 7 19 18 16.7 116.2 1000 35 3 Image Chart
2010 7 20 00 17.2 115.7 998 35 3 Image Chart
2010 7 20 06 17.7 114.9 994 40 3 Image Chart
2010 7 20 12 17.9 114.2 990 45 3 Image Chart
2010 7 20 18 18.0 113.6 985 50 4 Image Chart
2010 7 21 00 18.2 113.2 985 55 4 Image Chart
2010 7 21 06 18.7 112.9 985 60 4 Image Chart
2010 7 21 12 19.2 112.4 980 65 5 Image Chart
2010 7 21 18 19.8 112.0 975 65 5 Image Chart
2010 7 22 00 20.5 111.5 970 70 5 Image Chart
2010 7 22 06 21.4 110.5 970 70 5 Image Chart
2010 7 22 12 21.7 109.9 980 65 5 Image Chart
2010 7 22 18 22.7 108.9 985 55 4 Image Chart
2010 7 23 00 23.1 107.9 996 45 3 Image Chart
2010 7 23 06 23.5 107.0 1000 0 2 Image Chart
2010 7 23 12 23.5 106.5 1000 0 2 Image Chart
Japan Meteorological Agency Best Track Data | Correction Date : 2010-09-10
< Typhoon 201002 2010 Season Typhoon 201004 >

Help